Flight Track Log - Related Links

Times and Time Zones

All times are in EDT time to prevent confusion due to time zone crossing. See the SWA325 flight status page for this flight to view local times or setup timezone preferences in your user account.

Time Position Orientation Groundspeed Altitude Reporting Facility
EDT Latitude Longitude Course Direction KTS MPH feet Rate Location/Type
Sun 08:20:18 PM 30.2386 -97.8758 307° West 274 315 9,900  Level Houston Center
Sun 08:21:20 PM 30.2589 -97.9828 282° West 324 373 11,600 2,177 Climbing Houston Center
Sun 08:22:00 PM 30.4167 -97.9449 270° West  Level FlightAware Approximate
Sun 08:22:22 PM 30.2811 -98.0994 282° West 368 423 14,400  Level Houston Center
Sun 08:23:00 PM 30.4263 -98.0813 278° West  Level FlightAware Approximate
Sun 08:23:24 PM 30.3056 -98.2292 282° West 383 441 17,300  Level Houston Center
Sun 08:24:00 PM 30.4423 -98.2172 278° West  Level FlightAware Approximate
Sun 08:24:25 PM 30.3281 -98.3456 283° West 398 458 19,400  Level Houston Center
Sun 08:25:27 PM 30.3539 -98.4803 283° West 417 480 21,800 2,129 Climbing Houston Center
Sun 08:26:29 PM 30.3783 -98.6147 282° West 425 489 23,800 2,000 Climbing Houston Center
Sun 08:27:30 PM 30.4039 -98.7561 282° West 442 509 25,900 2,000 Climbing Houston Center
Sun 08:28:32 PM 30.4311 -98.8978 283° West 445 512 27,900 1,645 Climbing Houston Center
Sun 08:29:34 PM 30.4572 -99.0406 282° West 448 516 29,300 1,403 Climbing Houston Center
Sun 08:30:36 PM 30.4858 -99.1994 282° West 465 535 30,800 1,707 Climbing Houston Center
Sun 08:31:37 PM 30.5142 -99.3461 283° West 467 537 32,800 1,728 Climbing Houston Center
Sun 08:32:41 PM 30.5400 -99.4903 282° West 461 531 34,400 1,645 Climbing Houston Center
Sun 08:33:41 PM 30.5708 -99.6603 282° West 453 521 36,200 1,377 Climbing Houston Center
Sun 08:34:43 PM 30.5942 -99.8006 281° West 442 509 37,200 829 Climbing Houston Center
Sun 08:35:44 PM 30.6156 -99.9447 280° West 455 524 37,900 341 Climbing Houston Center
Sun 08:36:46 PM 30.6542 -100.0811 288° West 451 519 37,900  Level Houston Center
Sun 08:37:48 PM 30.6928 -100.2175 288° West 443 510 37,900  Level Houston Center
Sun 08:38:49 PM 30.7300 -100.3544 288° West 444 511 37,900  Level Houston Center
Sun 08:39:51 PM 30.7758 -100.5206 288° West 454 522 37,900  Level Houston Center
Sun 08:40:53 PM 30.8125 -100.6578 287° West 458 527 37,900  Level Houston Center
Sun 08:41:55 PM 30.8497 -100.7869 289° West 439 505 37,900  Level Houston Center
Sun 08:42:56 PM 30.8850 -100.9247 287° West 442 509 37,900  Level Houston Center
Sun 08:43:58 PM 30.9225 -101.0631 288° West 448 516 37,900  Level Houston Center
Sun 08:45:00 PM 30.9603 -101.1939 289° West 429 494 37,900  Level Houston Center
Sun 08:46:01 PM 31.0019 -101.3531 287° West 441 507 37,900  Level Houston Center
Sun 08:47:03 PM 31.0358 -101.4908 286° West 443 510 37,900  Level Houston Center
Sun 08:48:05 PM 31.0711 -101.6297 287° West 446 513 37,900  Level Houston Center
Sun 08:49:06 PM 31.1100 -101.7697 288° West 452 520 37,900  Level Houston Center
Sun 08:50:08 PM 31.1464 -101.9106 287° West 445 512 37,900  Level Houston Center
Sun 08:51:09 PM 31.1825 -102.0497 287° West 450 518 37,900  Level Houston Center
Sun 08:51:42 PM 31.2067 -102.1456 286° West 458 527 37,900 63 Level Albuquerque Center
Sun 08:52:44 PM 31.2425 -102.2886 286° West 458 527 38,000 49 Climbing Albuquerque Center
Sun 08:53:45 PM 31.2783 -102.4275 287° West 455 524 38,000 -49 Level Albuquerque Center
Sun 08:54:46 PM 31.3153 -102.5717 287° West 452 520 37,900 -49 Descending Albuquerque Center
Sun 08:55:48 PM 31.3508 -102.7114 287° West 449 517 37,900  Level Albuquerque Center
Sun 08:56:49 PM 31.3858 -102.8517 286° West 451 519 37,900  Level Albuquerque Center
Sun 08:57:50 PM 31.4211 -102.9925 286° West 451 519 37,900  Level Albuquerque Center
Sun 08:58:52 PM 31.4636 -103.1611 287° West 450 518 37,900  Level Albuquerque Center
Sun 08:59:53 PM 31.4981 -103.3028 286° West 453 521 37,900  Level Albuquerque Center
Sun 09:00:54 PM 31.5325 -103.4439 286° West 453 521 37,900  Level Albuquerque Center
Sun 09:01:56 PM 31.5672 -103.5853 286° West 453 521 37,900 49 Level Albuquerque Center
Sun 09:02:57 PM 31.5994 -103.7192 286° West 446 513 38,000  Climbing Albuquerque Center
Sun 09:03:59 PM 31.6336 -103.8569 286° West 450 518 37,900 -49 Descending Albuquerque Center
Sun 09:05:00 PM 31.6678 -103.9950 286° West 446 513 37,900  Level Albuquerque Center
Sun 09:06:01 PM 31.7092 -104.1611 286° West 445 512 37,900  Level Albuquerque Center
Sun 09:07:03 PM 31.7414 -104.3000 285° West 444 511 37,900  Level Albuquerque Center
Sun 09:08:04 PM 31.7747 -104.4389 286° West 444 511 37,900  Level Albuquerque Center
Sun 09:09:06 PM 31.8078 -104.5772 286° West 443 510 37,900  Level Albuquerque Center
Sun 09:10:07 PM 31.8417 -104.7153 286° West 442 509 37,900  Level Albuquerque Center
Sun 09:11:08 PM 31.8742 -104.8550 285° West 445 512 37,900  Level Albuquerque Center
Sun 09:12:10 PM 31.9061 -104.9950 285° West 445 512 37,900  Level Albuquerque Center
Sun 09:13:11 PM 31.9394 -105.1336 286° West 445 512 37,900  Level Albuquerque Center
Sun 09:14:13 PM 31.9786 -105.3033 285° West 449 517 37,900  Level Albuquerque Center
Sun 09:15:14 PM 32.0106 -105.4464 285° West 450 518 37,900  Level Albuquerque Center
Sun 09:16:15 PM 32.0428 -105.5878 285° West 448 516 37,900  Level Albuquerque Center
Sun 09:17:17 PM 32.0736 -105.7281 285° West 445 512 37,900  Level Albuquerque Center
Sun 09:18:18 PM 32.1056 -105.8675 285° West 443 510 37,900  Level Albuquerque Center
Sun 09:19:20 PM 32.1414 -106.0239 285° West 448 516 37,900 49 Level Albuquerque Center
Sun 09:20:21 PM 32.1736 -106.1739 284° West 444 511 38,000  Climbing Albuquerque Center
Sun 09:21:22 PM 32.2036 -106.3061 285° West 447 514 37,900 -49 Descending Albuquerque Center
Sun 09:22:24 PM 32.2344 -106.4469 285° West 445 512 37,900  Level Albuquerque Center
Sun 09:23:25 PM 32.2653 -106.5886 284° West 446 513 37,900  Level Albuquerque Center
Sun 09:24:27 PM 32.2964 -106.7297 285° West 444 511 37,900 49 Level Albuquerque Center
Sun 09:25:28 PM 32.3336 -106.9011 284° West 445 512 38,000 49 Climbing Albuquerque Center
Sun 09:26:29 PM 32.3642 -107.0414 284° West 443 510 38,000  Level Albuquerque Center
Sun 09:27:31 PM 32.3956 -107.1842 285° West 448 516 38,000 -49 Level Albuquerque Center
Sun 09:28:32 PM 32.4214 -107.3144 283° West 454 522 37,900 -49 Descending Albuquerque Center
Sun 09:29:34 PM 32.4508 -107.4572 284° West 452 520 37,900  Level Albuquerque Center
Sun 09:30:35 PM 32.4847 -107.6278 283° West 449 517 37,900  Level Albuquerque Center
Sun 09:31:36 PM 32.5147 -107.7714 284° West 449 517 37,900 49 Level Albuquerque Center
Sun 09:32:38 PM 32.5447 -107.9128 284° West 449 517 38,000  Climbing Albuquerque Center
Sun 09:33:39 PM 32.5736 -108.0539 284° West 446 513 37,900 -49 Descending Albuquerque Center
Sun 09:34:41 PM 32.6025 -108.1953 284° West 444 511 37,900  Level Albuquerque Center
Sun 09:35:42 PM 32.6308 -108.3347 284° West 441 507 37,900  Level Albuquerque Center
Sun 09:36:43 PM 32.6592 -108.4742 284° West 438 504 37,900  Level Albuquerque Center
Sun 09:37:45 PM 32.6922 -108.6397 283° West 434 499 37,900  Level Albuquerque Center
Sun 09:38:46 PM 32.7197 -108.7764 283° West 436 502 37,900  Level Albuquerque Center
Sun 09:39:47 PM 32.7528 -108.9244 285° West 439 505 37,900  Level Albuquerque Center
Sun 09:40:49 PM 32.7806 -109.0647 283° West 437 503 37,900  Level Albuquerque Center
Sun 09:41:50 PM 32.8031 -109.2072 281° West 442 509 37,900  Level Albuquerque Center
Sun 09:42:51 PM 32.8319 -109.3483 284° West 441 507 37,900  Level Albuquerque Center
Sun 09:43:53 PM 32.8592 -109.4903 283° West 442 509 37,900  Level Albuquerque Center
Sun 09:44:54 PM 32.8864 -109.6311 283° West 443 510 37,900  Level Albuquerque Center
Sun 09:45:55 PM 32.9136 -109.7722 283° West 442 509 37,900  Level Albuquerque Center
Sun 09:46:57 PM 32.9403 -109.9150 283° West 445 512 37,900  Level Albuquerque Center
Sun 09:47:58 PM 32.9739 -110.0858 283° West 445 512 37,900 49 Level Albuquerque Center
Sun 09:48:59 PM 33.0014 -110.2283 283° West 446 513 38,000 49 Climbing Albuquerque Center
Sun 09:50:00 PM 33.0278 -110.3700 283° West 443 510 38,000 -49 Level Albuquerque Center
Sun 09:51:02 PM 33.0531 -110.5122 282° West 442 509 37,900 -49 Descending Albuquerque Center
Sun 09:52:03 PM 33.0792 -110.6531 283° West 441 507 37,900 49 Level Albuquerque Center
Sun 09:53:04 PM 33.1058 -110.7978 282° West 442 509 38,000  Climbing Albuquerque Center
Sun 09:54:06 PM 33.1314 -110.9408 282° West 441 507 37,900 -49 Descending Albuquerque Center
Sun 09:55:07 PM 33.1583 -111.0814 283° West 436 502 37,900  Level Albuquerque Center
Sun 09:56:08 PM 33.1822 -111.2250 281° West 440 506 37,900  Level Albuquerque Center
Sun 09:57:09 PM 33.2133 -111.3969 282° West 441 507 37,900  Level Albuquerque Center
Sun 09:58:11 PM 33.2375 -111.5403 281° West 440 506 37,900  Level Albuquerque Center
Sun 09:59:12 PM 33.2631 -111.6839 282° West 441 507 37,900  Level Albuquerque Center
Sun 10:00:13 PM 33.2875 -111.8281 282° West 441 507 37,900  Level Albuquerque Center
Sun 10:01:14 PM 33.3119 -111.9711 282° West 439 505 37,900 49 Level Albuquerque Center
Sun 10:02:16 PM 33.3358 -112.1150 281° West 439 505 38,000 49 Climbing Albuquerque Center
Sun 10:03:17 PM 33.3600 -112.2594 281° West 442 509 38,000  Level Albuquerque Center
Sun 10:04:18 PM 33.3839 -112.4058 281° West 444 511 38,000 -49 Level Albuquerque Center
Sun 10:05:20 PM 33.4086 -112.5511 282° West 445 512 37,900 -49 Descending Albuquerque Center
Sun 10:06:21 PM 33.4356 -112.7153 281° West 442 509 37,900  Level Albuquerque Center
Sun 10:07:22 PM 33.4586 -112.8592 281° West 442 509 37,900  Level Albuquerque Center
Sun 10:08:23 PM 33.4869 -113.0003 284° West 440 506 37,900  Level Albuquerque Center
Sun 10:09:25 PM 33.5156 -113.1414 284° West 439 505 37,900  Level Albuquerque Center
Sun 10:10:26 PM 33.5403 -113.2822 282° West 436 502 37,900  Level Albuquerque Center
Sun 10:11:27 PM 33.5678 -113.4222 283° West 434 499 37,900  Level Albuquerque Center
Sun 10:12:28 PM 33.5947 -113.5617 283° West 433 498 37,900  Level Albuquerque Center
Sun 10:13:30 PM 33.6219 -113.7150 282° West 430 495 37,900  Level Albuquerque Center
Sun 10:14:31 PM 33.6475 -113.8544 282° West 429 494 37,900  Level Albuquerque Center
Sun 10:15:32 PM 33.6733 -113.9942 283° West 430 495 37,900 49 Level Albuquerque Center
Sun 10:16:33 PM 33.6997 -114.1350 283° West 431 496 38,000  Climbing Albuquerque Center
Sun 10:17:35 PM 33.7269 -114.2883 282° West 432 497 37,900 -49 Descending Albuquerque Center
Sun 10:18:36 PM 33.7528 -114.4281 283° West 430 495 37,900  Level Albuquerque Center
Sun 10:18:57 PM 33.7619 -114.4725 284° West 432 497 37,900  Level Los Angeles Center
Sun 10:19:59 PM 33.7808 -114.6428 278° West 431 496 37,900  Level Los Angeles Center
Sun 10:21:01 PM 33.7883 -114.7850 274° West 429 494 37,900  Level Los Angeles Center
Sun 10:22:03 PM 33.7983 -114.9272 275° West 429 494 37,900  Level Los Angeles Center
Sun 10:23:04 PM 33.8483 -115.0622 294° West 442 509 37,900  Level Los Angeles Center
Sun 10:24:06 PM 33.8989 -115.1961 294° West 442 509 37,900  Level Los Angeles Center
Sun 10:25:08 PM 33.9500 -115.3278 295° West 439 505 37,900  Level Los Angeles Center
Sun 10:26:10 PM 34.0019 -115.4606 295° West 439 505 37,900  Level Los Angeles Center
Sun 10:27:11 PM 34.0631 -115.6211 295° West 442 509 37,900  Level Los Angeles Center
Sun 10:28:13 PM 34.1150 -115.7550 295° West 442 509 37,900 48 Level Los Angeles Center
Sun 10:29:15 PM 34.1669 -115.8928 295° West 443 510 38,000  Climbing Los Angeles Center
Sun 10:30:16 PM 34.2206 -116.0311 295° West 453 521 37,900 -49 Descending Los Angeles Center
Sun 10:31:18 PM 34.2728 -116.1683 295° West 450 518 37,900  Level Los Angeles Center
Sun 10:32:20 PM 34.3242 -116.3042 295° West 447 514 37,900  Level Los Angeles Center
Sun 10:33:21 PM 34.3742 -116.4381 294° West 438 504 37,900 49 Level Los Angeles Center
Sun 10:34:23 PM 34.4258 -116.5717 295° West 438 504 38,000  Climbing Los Angeles Center
Sun 10:35:24 PM 34.4669 -116.6831 294° West 447 514 37,900 -48 Descending Los Angeles Center
Sun 10:36:27 PM 34.5408 -116.8789 295° West 457 526 37,900  Level Los Angeles Center
Sun 10:37:28 PM 34.5933 -117.0214 294° West 462 532 37,900  Level Los Angeles Center
Sun 10:38:30 PM 34.6464 -117.1647 294° West 465 535 37,900  Level Los Angeles Center
Sun 10:39:32 PM 34.6992 -117.3086 294° West 465 535 37,900 49 Level Los Angeles Center
Sun 10:40:33 PM 34.7517 -117.4544 294° West 468 539 38,000  Climbing Los Angeles Center
Sun 10:41:35 PM 34.8042 -117.6008 294° West 468 539 37,900  Descending Los Angeles Center
Sun 10:42:37 PM 34.8467 -117.7181 294° West 467 537 38,000  Climbing Los Angeles Center
Sun 10:43:39 PM 34.9117 -117.8936 294° West 468 539 37,900 -48 Descending Los Angeles Center
Sun 10:44:41 PM 34.9733 -118.0672 293° West 465 535 37,900  Level Los Angeles Center
Sun 10:45:42 PM 35.0247 -118.2089 294° West 462 532 37,900  Level Los Angeles Center
Sun 10:46:44 PM 35.0750 -118.3500 294° West 457 526 37,900  Level Los Angeles Center
Sun 10:47:46 PM 35.1300 -118.5039 294° West 461 531 37,900  Level Los Angeles Center
Sun 10:48:48 PM 35.1806 -118.6467 293° West 459 528 37,900  Level Los Angeles Center
Sun 10:50:01 PM 35.2328 -118.7908 294° West 461 531 37,900  Level Los Angeles Center
Sun 10:51:03 PM 35.2878 -118.9631 291° West 454 522 37,900  Level Los Angeles Center
Sun 10:52:05 PM 35.3033 -119.1153 277° West 449 517 37,900  Level Los Angeles Center
Sun 10:53:07 PM 35.3217 -119.2636 279° West 443 510 37,900  Level Los Angeles Center
Sun 10:54:09 PM 35.3456 -119.4142 281° West 449 517 37,900  Level Los Angeles Center
Sun 10:55:22 PM 35.4136 -119.5828 296° West 461 531 37,900  Level Los Angeles Center
Sun 10:56:18 PM 35.4675 -119.7211 296° West 463 533 37,900  Level Oakland Center
Sun 10:57:26 PM 35.5364 -119.8897 297° West 456 525 37,900  Level Los Angeles Center
Sun 10:58:28 PM 35.5933 -120.0314 296° West 465 535 37,900  Level Los Angeles Center
Sun 10:59:21 PM 35.6503 -120.1717 297° West 467 537 37,900  Level Oakland Center
Sun 11:00:22 PM 35.7072 -120.3147 296° West 473 544 37,900  Level Oakland Center
Sun 11:01:24 PM 35.7642 -120.4578 296° West 471 542 37,900  Level Oakland Center
Sun 11:02:25 PM 35.8489 -120.5822 310° West 478 550 37,900 -1,180 Level Oakland Center
Sun 11:03:26 PM 35.9369 -120.7011 312° West 471 542 35,500 -2,754 Descending Oakland Center
Sun 11:04:27 PM 36.0272 -120.8242 312° West 481 554 32,300 -2,902 Descending Oakland Center
Sun 11:05:28 PM 36.1172 -120.9492 312° West 487 560 29,600 -2,803 Descending Oakland Center
Sun 11:06:29 PM 36.2231 -121.0942 312° West 473 544 26,600 -2,656 Descending Oakland Center
Sun 11:07:30 PM 36.3081 -121.2122 312° West 461 531 24,200 -2,244 Descending Oakland Center
Sun 11:08:32 PM 36.3928 -121.3228 314° West 444 511 22,000 -3,122 Descending Oakland Center
Sun 11:09:33 PM 36.4958 -121.4044 328° Northwest 440 506 17,800 -3,541 Descending Oakland Center
Sun 11:10:34 PM 36.5942 -121.4836 327° Northwest 419 482 14,800 -2,705 Descending Oakland Center
Sun 11:11:35 PM 36.6894 -121.5622 327° Northwest 411 473 12,300 -1,707 Descending Oakland Center
Sun 11:12:37 PM 36.7775 -121.6347 327° Northwest 376 433 11,300 -1,172 Descending Oakland Center
Sun 11:13:02 PM 36.8167 -121.6667 327° Northwest 363 418 10,600 -911 Descending Northern Cal TRACON
Sun 11:13:56 PM 36.9000 -121.7333 327° Northwest 329 379 10,100 -742 Descending Northern Cal TRACON
Sun 11:14:39 PM 36.9331 -121.7628 325° Northwest 319 367 9,400 -1,327 Descending Oakland Center
Sun 11:15:40 PM 37.0228 -121.8144 335° Northwest 298 343 7,800 -1,377 Descending Oakland Center
Sun 11:16:41 PM 37.0947 -121.8544 336° Northwest 286 329 6,600 -1,024 Descending Oakland Center
Sun 11:17:43 PM 37.1639 -121.8956 335° Northwest 277 319 5,700 -732 Descending Oakland Center
Sun 11:18:44 PM 37.2325 -121.9392 333° Northwest 276 318 5,100 -492 Descending Oakland Center
Sun 11:19:45 PM 37.3008 -121.9806 334° Northwest 274 315 4,700 -590 Descending Oakland Center
Sun 11:20:46 PM 37.3603 -122.0250 329° Northwest 257 296 3,900 -1,033 Descending Oakland Center
Sun 11:21:47 PM 37.4103 -122.0553 334° Northwest 211 243 2,600 -1,184 Descending Oakland Center
Sun 11:22:02 PM 37.4333 -122.0333 37° Northeast 197 227 2,400 -870 Descending Northern Cal TRACON
Sun 11:22:56 PM 37.4167 -122.0000 122° Southeast 173 199 1,600 -950 Descending Northern Cal TRACON
Sun 11:24:02 PM 37.3833 -121.9500 130° Southeast 136 157 500 -783 Descending Northern Cal TRACON
Sun 11:24:51 PM 37.3692 -121.9358 142° Southeast 143 165 100 -490 Descending Oakland Center

Login

Don't have an account? Register now (free) for customized features, flight alerts, and more!